Time;durP1;ratioP1;P1;durP2;ratioP2;P2;SDS_P1;SDS_P2;PMS_P1;PMS_P2;Temp;Humidity;BMP_temperature;BMP_pressure;BME280_temperature;BME280_humidity;BME280_pressure;Samples;Min_cycle;Max_cycle;Signal;HPM_P1;HPM_P2
2021/08/31 00:00:09;;;;;;;8.15;7.43;;;;;;;28.73;59.00;100877.84;5067819;27;70222;-44
2021/08/31 00:02:40;;;;;;;12.17;6.83;;;;;;;28.73;58.90;100868.91;5070133;27;66386;-44
2021/08/31 00:05:13;;;;;;;9.43;7.45;;;;;;;28.79;59.36;100867.25;5048204;27;70193;-44
2021/08/31 00:07:44;;;;;;;10.50;7.70;;;;;;;28.77;58.70;100853.97;5070093;27;66681;-45
2021/08/31 00:10:15;;;;;;;16.83;7.88;;;;;;;28.83;59.83;100869.31;5066385;27;71681;-43
2021/08/31 00:12:46;;;;;;;7.95;6.82;;;;;;;28.94;59.14;100875.97;5069653;27;66950;-43
2021/08/31 00:15:17;;;;;;;9.43;7.00;;;;;;;28.94;59.68;100882.19;5077267;27;69545;-44
2021/08/31 00:17:48;;;;;;;10.88;7.10;;;;;;;28.96;61.84;100882.84;5072805;27;65482;-43
2021/08/31 00:20:19;;;;;;;12.90;7.82;;;;;;;29.07;62.32;100886.81;5074817;27;70628;-44
2021/08/31 00:22:49;;;;;;;13.60;7.78;;;;;;;29.09;64.12;100894.72;5081441;27;66315;-44
2021/08/31 00:25:20;;;;;;;9.10;7.60;;;;;;;29.16;64.24;100900.94;5080901;27;70251;-43
2021/08/31 00:27:51;;;;;;;12.23;7.85;;;;;;;29.19;65.42;100905.94;5070475;27;65988;-46
2021/08/31 00:30:22;;;;;;;9.60;8.77;;;;;;;29.18;65.99;100901.56;5077013;27;70557;-48
2021/08/31 00:32:52;;;;;;;10.32;8.52;;;;;;;29.17;66.14;100913.44;5059463;27;65366;-43
2021/08/31 00:35:23;;;;;;;10.75;9.02;;;;;;;29.27;66.13;100918.41;5069772;27;69566;-49
2021/08/31 00:37:55;;;;;;;8.50;8.00;;;;;;;29.25;67.20;100915.06;5062877;27;66029;-44
2021/08/31 00:40:26;;;;;;;10.05;8.38;;;;;;;29.31;67.60;100925.03;5073451;27;69859;-44
2021/08/31 00:42:57;;;;;;;9.75;8.95;;;;;;;29.33;67.55;100926.50;5094397;27;66375;-44
2021/08/31 00:45:29;;;;;;;8.38;7.88;;;;;;;29.29;67.39;100917.16;5057043;27;69072;-43
2021/08/31 00:48:01;;;;;;;8.43;7.93;;;;;;;29.35;67.71;100932.53;5075410;27;66184;-44
2021/08/31 00:50:33;;;;;;;8.98;8.27;;;;;;;29.38;67.69;100931.28;5080146;27;69719;-45
2021/08/31 00:53:13;;;;;;;9.77;8.90;;;;;;;29.16;67.84;100890.97;5056065;27;66261;-43
2021/08/31 00:55:46;;;;;;;10.20;9.40;;;;;;;29.38;68.70;100932.09;5080554;27;69075;-43
2021/08/31 00:58:17;;;;;;;9.10;8.50;;;;;;;29.44;68.33;100941.25;5078966;27;65755;-43
2021/08/31 01:00:48;;;;;;;10.48;9.45;;;;;;;29.43;69.29;100944.19;5074465;27;69987;-43
2021/08/31 01:03:19;;;;;;;10.50;9.73;;;;;;;29.45;68.50;100942.94;5077489;27;65116;-45
2021/08/31 01:05:50;;;;;;;8.50;8.00;;;;;;;29.48;68.00;100947.09;5074959;27;68984;-44
2021/08/31 01:08:21;;;;;;;9.88;9.07;;;;;;;29.45;69.01;100947.47;5077180;27;66143;-44
2021/08/31 01:10:57;;;;;;;8.77;8.27;;;;;;;29.44;69.29;100943.13;5078400;27;70102;-44
2021/08/31 01:13:30;;;;;;;8.90;8.40;;;;;;;29.45;68.90;100952.88;5076763;27;65096;-44
2021/08/31 01:16:05;;;;;;;10.02;9.23;;;;;;;29.20;69.33;100895.94;5072429;27;69947;-43
2021/08/31 01:18:36;;;;;;;9.18;8.68;;;;;;;29.54;68.81;100959.75;5070754;27;65316;-43
2021/08/31 01:21:07;;;;;;;9.02;8.40;;;;;;;29.56;69.53;100963.91;5074878;27;69348;-43
2021/08/31 01:23:39;;;;;;;9.93;9.32;;;;;;;29.46;69.81;100954.56;5073337;27;66457;-43
2021/08/31 01:26:09;;;;;;;9.02;8.43;;;;;;;29.59;69.39;100963.50;5078697;27;70816;-42
2021/08/31 01:28:40;;;;;;;9.35;8.50;;;;;;;29.46;70.24;100946.47;5074862;27;65780;-42
2021/08/31 01:31:11;;;;;;;8.93;8.32;;;;;;;29.59;69.89;100960.78;5075273;27;69915;-42
2021/08/31 01:33:42;;;;;;;8.75;8.10;;;;;;;29.64;70.50;100971.00;5068019;27;66345;-44
2021/08/31 01:36:14;;;;;;;8.40;7.80;;;;;;;29.68;69.93;100974.94;5071257;27;70126;-43
2021/08/31 01:38:45;;;;;;;10.82;8.85;;;;;;;29.67;69.66;100978.72;5077238;27;65932;-43
2021/08/31 01:41:19;;;;;;;9.52;8.82;;;;;;;29.67;70.00;100973.28;5050260;27;43136;-44
2021/08/31 01:43:51;;;;;;;8.40;7.65;;;;;;;29.66;70.48;100970.78;5072901;27;66542;-43
2021/08/31 01:46:21;;;;;;;10.13;9.40;;;;;;;29.74;69.97;100979.50;5060318;27;68529;-43
2021/08/31 01:49:02;;;;;;;8.50;7.90;;;;;;;29.71;69.96;100969.13;5068566;27;66176;-43
2021/08/31 01:51:45;;;;;;;10.10;9.48;;;;;;;29.73;70.22;100969.75;5074019;27;69237;-44
2021/08/31 01:54:16;;;;;;;11.10;10.15;;;;;;;29.81;70.54;100971.38;5065044;27;65657;-43
2021/08/31 01:56:48;;;;;;;9.77;9.17;;;;;;;29.82;70.20;100970.34;5070199;27;70789;-43
2021/08/31 01:59:18;;;;;;;10.47;9.80;;;;;;;29.84;71.01;100969.09;5073352;27;66179;-44
2021/08/31 02:01:50;;;;;;;12.07;9.63;;;;;;;29.81;70.90;100964.13;5073656;27;69842;-42
2021/08/31 02:04:21;;;;;;;10.60;9.70;;;;;;;29.84;70.75;100952.88;5072983;27;66176;-45
2021/08/31 02:06:53;;;;;;;11.38;10.32;;;;;;;29.85;70.79;100953.69;5079101;27;70589;-44
2021/08/31 02:09:23;;;;;;;10.82;9.98;;;;;;;29.92;70.33;100950.97;5074946;27;65140;-45
2021/08/31 02:11:54;;;;;;;13.98;11.27;;;;;;;29.97;70.57;100951.16;5067558;27;69110;-44
2021/08/31 02:14:25;;;;;;;11.55;10.40;;;;;;;30.00;70.80;100954.28;5070280;27;66871;-44
2021/08/31 02:16:56;;;;;;;10.77;9.98;;;;;;;29.99;70.42;100943.69;5070457;27;70014;-45
2021/08/31 02:19:27;;;;;;;11.05;10.02;;;;;;;29.99;70.64;100943.69;5066878;27;65813;-44
2021/08/31 02:21:58;;;;;;;10.20;9.35;;;;;;;30.06;70.52;100949.88;5065390;27;69448;-44
2021/08/31 02:24:29;;;;;;;10.82;9.68;;;;;;;30.06;70.66;100941.75;5082642;27;65355;-45
2021/08/31 02:27:00;;;;;;;10.00;9.20;;;;;;;30.03;70.51;100940.34;5066984;27;70185;-46
2021/08/31 02:29:31;;;;;;;11.70;10.63;;;;;;;30.05;70.22;100940.94;5065628;27;65356;-46
2021/08/31 02:32:05;;;;;;;10.27;9.68;;;;;;;30.11;69.78;100941.97;5064980;27;70085;-43
2021/08/31 02:34:35;;;;;;;9.63;8.95;;;;;;;30.06;70.18;100930.94;5063018;27;65998;-45
2021/08/31 02:37:06;;;;;;;10.80;10.10;;;;;;;30.11;70.08;100933.84;5045040;28;69795;-43
2021/08/31 02:39:38;;;;;;;9.05;8.52;;;;;;;30.03;70.22;100917.84;5066608;27;67010;-44
2021/08/31 02:42:09;;;;;;;10.35;9.57;;;;;;;30.13;70.45;100926.34;5067558;27;69285;-44
2021/08/31 02:44:39;;;;;;;8.20;7.78;;;;;;;30.15;70.21;100940.50;5082466;27;65942;-44
2021/08/31 02:47:10;;;;;;;9.52;8.63;;;;;;;30.15;70.11;100926.97;5071568;27;70026;-43
2021/08/31 02:49:41;;;;;;;8.95;8.45;;;;;;;30.20;70.26;100931.72;5059742;27;66698;-43
2021/08/31 02:52:12;;;;;;;10.30;9.52;;;;;;;30.26;70.33;100929.03;5063931;27;69832;-44
2021/08/31 02:54:43;;;;;;;8.80;8.32;;;;;;;30.25;70.17;100916.53;5068044;27;66542;-43
2021/08/31 02:57:14;;;;;;;8.75;8.25;;;;;;;30.31;69.31;100914.03;5072219;27;68916;-43
2021/08/31 02:59:45;;;;;;;8.07;7.57;;;;;;;30.32;69.91;100905.69;5069641;27;66352;-42
2021/08/31 03:02:16;;;;;;;8.05;7.45;;;;;;;30.41;69.49;100914.41;5071887;27;69865;-42
2021/08/31 03:04:47;;;;;;;7.80;7.32;;;;;;;30.43;69.59;100899.59;5074349;27;65564;-42
2021/08/31 03:07:18;;;;;;;8.00;7.50;;;;;;;30.44;69.57;100897.72;5077469;27;69880;-42
2021/08/31 03:09:49;;;;;;;8.95;8.35;;;;;;;30.43;69.83;100890.66;5079749;27;65953;-42
2021/08/31 03:12:20;;;;;;;8.40;7.90;;;;;;;30.47;68.96;100897.28;5071748;27;70374;-43
2021/08/31 03:14:50;;;;;;;10.02;9.38;;;;;;;30.50;69.33;100894.13;5073366;27;66072;-44
2021/08/31 03:17:21;;;;;;;10.60;9.88;;;;;;;30.42;68.99;100888.97;5067982;27;71193;-42
2021/08/31 03:19:54;;;;;;;11.07;10.07;;;;;;;30.50;69.55;100896.84;5066541;27;65380;-43
2021/08/31 03:22:24;;;;;;;10.30;9.27;;;;;;;30.56;69.01;100906.78;5075668;27;69741;-42
2021/08/31 03:24:55;;;;;;;8.88;8.38;;;;;;;30.52;69.08;100894.75;5071680;27;65060;-42
2021/08/31 03:27:26;;;;;;;9.75;9.02;;;;;;;30.59;69.19;100900.13;5074741;27;70207;-42
2021/08/31 03:29:57;;;;;;;9.50;8.85;;;;;;;30.55;68.86;100888.09;5066023;27;66033;-41
2021/08/31 03:32:28;;;;;;;8.93;8.13;;;;;;;30.44;68.50;100871.47;5073255;27;69545;-43
2021/08/31 03:35:00;;;;;;;8.48;7.90;;;;;;;30.68;68.16;100896.13;5071201;27;66529;-42
2021/08/31 03:37:31;;;;;;;8.45;7.95;;;;;;;30.70;68.63;100897.56;5073176;27;69556;-43
2021/08/31 03:40:02;;;;;;;6.85;6.45;;;;;;;30.76;67.53;100897.72;5075161;27;66981;-44
2021/08/31 03:42:33;;;;;;;7.53;7.13;;;;;;;30.64;67.14;100879.47;5081151;27;70680;-44
2021/08/31 03:45:04;;;;;;;7.90;7.30;;;;;;;30.76;66.69;100903.13;5070727;27;65628;-43
2021/08/31 03:47:36;;;;;;;8.15;7.57;;;;;;;30.76;66.86;100900.41;5069346;27;69535;-43
2021/08/31 03:50:07;;;;;;;7.85;7.20;;;;;;;30.77;66.81;100885.84;5071912;27;66105;-44
2021/08/31 03:52:38;;;;;;;7.47;7.07;;;;;;;30.78;66.95;100890.22;5073437;27;70347;-44
2021/08/31 03:55:09;;;;;;;7.85;7.35;;;;;;;30.87;67.15;100891.63;5070347;27;66104;-44
2021/08/31 03:57:40;;;;;;;8.80;8.10;;;;;;;30.84;67.61;100886.66;5077873;27;70341;-43
2021/08/31 04:00:11;;;;;;;10.00;9.30;;;;;;;30.88;67.90;100896.00;5071595;27;66211;-46
2021/08/31 04:02:43;;;;;;;17.95;11.00;;;;;;;30.89;67.57;100878.69;5073275;27;71023;-44
2021/08/31 04:05:16;;;;;;;12.93;11.05;;;;;;;30.93;67.92;100875.34;5081132;27;65538;-46
2021/08/31 04:07:48;;;;;;;14.70;11.02;;;;;;;30.98;67.13;100877.41;5075566;27;70604;-42
2021/08/31 04:10:18;;;;;;;11.95;10.05;;;;;;;31.03;66.84;100872.13;5069741;27;67135;-44
2021/08/31 04:12:49;;;;;;;14.10;10.80;;;;;;;31.05;67.02;100872.72;5075460;27;69843;-43
2021/08/31 04:15:20;;;;;;;10.20;9.20;;;;;;;31.06;67.23;100873.56;5077686;27;66742;-43
2021/08/31 04:17:51;;;;;;;10.43;9.55;;;;;;;31.07;66.98;100876.06;5079549;27;70084;-44
2021/08/31 04:20:21;;;;;;;9.80;8.90;;;;;;;31.11;66.10;100869.13;5070387;27;66223;-44
2021/08/31 04:22:52;;;;;;;8.95;8.38;;;;;;;31.12;65.27;100873.50;5067813;27;70112;-43
2021/08/31 04:25:23;;;;;;;8.65;8.00;;;;;;;31.12;65.39;100873.50;5071790;27;65129;-44
2021/08/31 04:27:53;;;;;;;8.48;7.97;;;;;;;31.12;65.19;100868.09;5067000;27;70236;-44
2021/08/31 04:30:24;;;;;;;7.65;7.13;;;;;;;31.15;65.35;100867.66;5070492;27;65475;-44
2021/08/31 04:32:55;;;;;;;7.40;7.00;;;;;;;31.10;64.84;100863.94;5068158;27;69864;-43
2021/08/31 04:35:26;;;;;;;7.70;7.10;;;;;;;31.14;65.00;100865.16;5071318;27;65939;-43
2021/08/31 04:37:57;;;;;;;8.00;7.50;;;;;;;31.16;65.39;100858.47;5065532;27;70526;-43
2021/08/31 04:40:34;;;;;;;8.27;7.68;;;;;;;31.19;65.19;100861.78;5045272;27;66110;-42
2021/08/31 04:43:04;;;;;;;7.80;7.28;;;;;;;31.23;65.31;100862.97;5071912;27;70117;-42
2021/08/31 04:45:35;;;;;;;7.57;6.97;;;;;;;31.25;64.86;100860.88;5073085;27;65457;-43
2021/08/31 04:48:06;;;;;;;8.57;7.78;;;;;;;31.23;64.80;100852.13;5076672;27;69294;-43
2021/08/31 04:50:37;;;;;;;10.90;8.10;;;;;;;31.22;65.29;100845.06;5078020;27;66345;-43
2021/08/31 04:53:08;;;;;;;7.88;7.25;;;;;;;31.30;66.02;100831.22;5073309;27;70132;-42
2021/08/31 04:55:38;;;;;;;6.65;6.25;;;;;;;31.34;66.05;100824.28;5080813;27;66537;-42
2021/08/31 04:58:10;;;;;;;5.63;5.32;;;;;;;31.34;66.30;100819.72;5076589;27;69825;-43
2021/08/31 05:00:40;;;;;;;6.10;5.70;;;;;;;31.31;66.51;100822.84;5057775;27;65911;-43
2021/08/31 05:03:12;;;;;;;;;;;;;;;31.13;67.74;100825.56;5064361;27;70054;-43
2021/08/31 05:05:43;;;;;;;5.63;5.15;;;;;;;31.34;67.42;100800.75;5071375;27;66774;-44
2021/08/31 05:08:14;;;;;;;4.15;3.88;;;;;;;31.44;67.44;100811.09;5055428;27;70353;-42
2021/08/31 05:10:45;;;;;;;7.05;3.65;;;;;;;31.44;67.45;100794.00;5069911;27;66052;-45
2021/08/31 05:13:15;;;;;;;5.68;3.70;;;;;;;31.40;65.48;100780.09;5059207;27;69820;-43
2021/08/31 05:15:47;;;;;;;6.60;4.27;;;;;;;31.28;65.07;100776.41;5069956;27;65952;-43
2021/08/31 05:18:17;;;;;;;10.80;3.65;;;;;;;31.14;64.46;100757.59;5061394;27;70127;-43
2021/08/31 05:20:48;;;;;;;4.72;3.33;;;;;;;31.16;63.53;100765.50;5067023;27;66219;-43
2021/08/31 05:23:19;;;;;;;6.35;3.25;;;;;;;31.07;62.35;100761.44;5065871;27;69817;-44
2021/08/31 05:25:50;;;;;;;3.30;2.70;;;;;;;31.00;61.75;100744.41;5063168;27;66606;-44
2021/08/31 05:28:21;;;;;;;6.60;2.80;;;;;;;30.93;61.21;100744.50;5067665;27;69885;-44
2021/08/31 05:30:51;;;;;;;15.18;2.90;;;;;;;30.90;60.52;100744.94;5072072;27;66245;-43
2021/08/31 05:33:22;;;;;;;6.68;2.53;;;;;;;30.85;60.05;100742.09;5077128;27;70312;-43
2021/08/31 05:35:53;;;;;;;25.40;2.75;;;;;;;30.82;59.36;100731.69;5076924;27;66147;-43
2021/08/31 05:38:24;;;;;;;13.65;2.80;;;;;;;30.80;57.86;100731.09;5077444;27;69886;-47
2021/08/31 05:40:55;;;;;;;4.82;2.70;;;;;;;30.69;57.25;100728.00;5079320;27;66748;-43
2021/08/31 05:43:28;;;;;;;16.42;3.55;;;;;;;30.70;56.65;100718.88;5074044;27;69243;-45
2021/08/31 05:45:58;;;;;;;9.02;2.95;;;;;;;30.64;55.98;100703.47;5069788;27;65456;-43
2021/08/31 05:48:30;;;;;;;10.60;2.70;;;;;;;30.61;54.85;100703.94;5076518;27;70563;-45
2021/08/31 05:51:03;;;;;;;9.73;3.00;;;;;;;30.58;53.79;100707.09;5071425;27;65199;-43
2021/08/31 05:53:34;;;;;;;6.75;2.83;;;;;;;30.55;53.43;100704.81;5070771;27;69279;-43
2021/08/31 05:56:05;;;;;;;4.30;2.67;;;;;;;30.48;52.67;100687.84;5075646;27;65689;-44
2021/08/31 05:58:36;;;;;;;3.25;2.83;;;;;;;30.45;52.47;100688.25;5082303;27;70247;-43
2021/08/31 06:01:07;;;;;;;5.68;2.72;;;;;;;30.42;51.58;100678.72;5064651;27;65063;-43
2021/08/31 06:03:39;;;;;;;8.30;3.28;;;;;;;30.41;51.41;100676.22;5074489;27;70183;-41
2021/08/31 06:06:10;;;;;;;6.95;2.92;;;;;;;30.37;51.62;100669.59;5065829;27;66279;-42
2021/08/31 06:08:40;;;;;;;5.07;3.00;;;;;;;30.39;51.63;100672.91;5074302;27;70211;-43
2021/08/31 06:11:12;;;;;;;4.57;3.10;;;;;;;30.35;50.55;100666.31;5073900;27;64729;-43
2021/08/31 06:13:43;;;;;;;;;;;;;;;30.06;50.08;100663.16;5070448;27;70159;-42
2021/08/31 06:16:13;;;;;;;4.03;2.67;;;;;;;30.29;50.44;100657.19;5071631;27;66704;-42
2021/08/31 06:18:45;;;;;;;5.57;2.53;;;;;;;30.28;49.33;100644.69;5069715;27;69146;-44
2021/08/31 06:21:15;;;;;;;4.22;3.25;;;;;;;30.24;49.47;100638.91;5073794;27;66968;-43
2021/08/31 06:23:46;;;;;;;3.13;2.83;;;;;;;30.26;48.72;100642.22;5068013;27;70280;-43
2021/08/31 06:26:21;;;;;;;2.97;2.65;;;;;;;30.25;48.56;100634.31;5086220;27;65310;-43
2021/08/31 06:28:51;;;;;;;5.63;2.80;;;;;;;30.23;48.20;100621.03;5073541;27;70473;-42
2021/08/31 06:31:22;;;;;;;2.83;2.63;;;;;;;30.21;48.15;100620.38;5073748;27;66521;-45
2021/08/31 06:33:53;;;;;;;2.92;2.60;;;;;;;30.19;47.44;100614.34;5081176;27;70022;-43
2021/08/31 06:36:24;;;;;;;3.65;2.97;;;;;;;30.15;47.56;100615.88;5058356;27;66329;-42
2021/08/31 06:38:55;;;;;;;5.88;3.10;;;;;;;30.19;48.08;100621.66;5077733;27;70044;-41
2021/08/31 06:41:25;;;;;;;4.82;3.53;;;;;;;30.13;48.48;100609.84;5076372;27;65188;-41
2021/08/31 06:43:57;;;;;;;3.42;3.22;;;;;;;30.14;47.89;100610.66;5074659;27;69977;-42
2021/08/31 06:46:27;;;;;;;3.70;3.40;;;;;;;30.17;47.79;100611.06;5077365;27;67220;-42
2021/08/31 06:49:12;;;;;;;5.60;2.88;;;;;;;30.15;47.77;100610.47;5073451;27;69061;-43
2021/08/31 06:51:43;;;;;;;;;;;;;;;29.90;47.11;100620.44;5074918;27;65139;-43
2021/08/31 06:54:14;;;;;;;3.35;3.05;;;;;;;30.11;46.99;100606.53;5073697;27;69770;-42
2021/08/31 06:56:58;;;;;;;3.53;3.17;;;;;;;30.05;47.38;100592.00;5064363;27;66134;-43
2021/08/31 06:59:29;;;;;;;3.90;3.15;;;;;;;30.06;46.86;100582.00;5083451;27;70502;-42
2021/08/31 07:02:00;;;;;;;4.25;3.10;;;;;;;30.12;47.15;100586.56;5077780;27;67442;-43
2021/08/31 07:04:31;;;;;;;6.65;3.60;;;;;;;30.10;46.98;100591.34;5077907;27;71190;-43
2021/08/31 07:07:02;;;;;;;7.00;2.90;;;;;;;30.10;46.96;100593.25;5078292;27;65988;-42
2021/08/31 07:09:33;;;;;;;4.85;3.38;;;;;;;30.08;46.45;100588.03;5074401;27;70118;-42
2021/08/31 07:12:04;;;;;;;7.57;3.30;;;;;;;30.09;46.79;100591.56;5078605;27;65410;-43
2021/08/31 07:14:35;;;;;;;5.70;3.17;;;;;;;30.06;46.38;100588.28;5074635;27;70496;-44
2021/08/31 07:17:06;;;;;;;8.53;3.17;;;;;;;30.00;47.17;100585.59;5076979;27;65862;-42
2021/08/31 07:19:37;;;;;;;3.83;3.03;;;;;;;30.00;46.96;100596.44;5074614;27;69971;-42
2021/08/31 07:22:08;;;;;;;10.70;3.20;;;;;;;30.04;47.28;100595.78;5056288;27;66033;-44
2021/08/31 07:24:41;;;;;;;5.73;2.97;;;;;;;30.02;46.20;100586.22;5067631;27;70287;-43
2021/08/31 07:27:13;;;;;;;3.35;2.92;;;;;;;30.01;46.36;100579.16;5085875;27;65851;-43
2021/08/31 07:29:45;;;;;;;5.97;3.00;;;;;;;29.99;46.86;100571.25;5066339;27;70463;-43
2021/08/31 07:32:16;;;;;;;9.25;3.08;;;;;;;29.97;46.42;100565.25;5066824;27;66563;-43
2021/08/31 07:34:47;;;;;;;16.48;3.22;;;;;;;29.93;46.40;100568.63;5078606;27;70074;-42
2021/08/31 07:37:18;;;;;;;4.53;2.88;;;;;;;29.87;46.80;100556.81;5066510;27;65456;-46
2021/08/31 07:39:50;;;;;;;3.15;2.95;;;;;;;29.91;46.80;100563.44;5068338;27;70359;-43
2021/08/31 07:42:21;;;;;;;6.68;3.05;;;;;;;29.80;46.56;100551.44;5067979;27;65955;-42
2021/08/31 07:44:53;;;;;;;3.10;2.90;;;;;;;29.90;46.66;100559.09;5067141;27;69469;-42
2021/08/31 07:47:24;;;;;;;6.68;3.35;;;;;;;29.83;45.90;100558.28;5073667;27;65159;-42
2021/08/31 07:50:04;;;;;;;4.55;3.20;;;;;;;29.60;46.25;100521.03;5072934;27;69158;-44
2021/08/31 07:52:36;;;;;;;4.10;3.08;;;;;;;29.86;45.80;100570.53;5060808;27;65717;-43
2021/08/31 07:55:10;;;;;;;3.42;3.13;;;;;;;29.78;46.18;100558.97;5073162;27;70530;-44
2021/08/31 07:57:41;;;;;;;3.28;3.05;;;;;;;29.80;48.06;100567.66;5075966;27;66683;-44
2021/08/31 08:00:15;;;;;;;3.95;3.67;;;;;;;29.80;49.00;100569.56;5057170;27;68679;-44
2021/08/31 08:02:46;;;;;;;5.82;3.17;;;;;;;29.82;48.46;100570.16;5073002;27;66162;-44
2021/08/31 08:05:20;;;;;;;3.33;3.13;;;;;;;29.80;47.89;100561.44;5061983;27;70818;-46
2021/08/31 08:07:51;;;;;;;3.73;3.43;;;;;;;29.77;47.55;100556.47;5073527;27;66219;-42
2021/08/31 08:10:23;;;;;;;4.53;3.35;;;;;;;29.73;46.93;100569.63;5064771;27;70008;-42
2021/08/31 08:12:54;;;;;;;3.17;2.97;;;;;;;29.73;46.55;100572.31;5067343;27;66073;-43
2021/08/31 08:15:25;;;;;;;3.50;3.30;;;;;;;29.70;46.17;100578.19;5072504;27;69153;-42
2021/08/31 08:17:56;;;;;;;3.10;2.90;;;;;;;29.70;46.20;100583.59;5071420;27;66159;-42
2021/08/31 08:20:28;;;;;;;3.42;3.22;;;;;;;29.66;45.77;100587.75;5080874;27;70283;-44
2021/08/31 08:22:59;;;;;;;2.87;2.70;;;;;;;29.65;46.05;100590.69;5078483;27;66128;-42
2021/08/31 08:25:30;;;;;;;3.70;3.37;;;;;;;29.63;45.14;100593.59;5080132;27;70273;-44
2021/08/31 08:28:23;;;;;;;4.60;3.50;;;;;;;29.28;44.92;100526.47;5066200;27;66338;-42
2021/08/31 08:30:54;;;;;;;3.10;3.00;;;;;;;29.50;44.65;100555.81;5063699;27;69655;-47
2021/08/31 08:33:24;;;;;;;3.30;3.10;;;;;;;29.57;44.56;100564.72;5080468;27;66110;-43
2021/08/31 08:35:56;;;;;;;3.80;3.50;;;;;;;29.49;44.59;100546.88;5066445;27;69166;-42
2021/08/31 08:38:26;;;;;;;3.45;3.22;;;;;;;29.47;44.36;100546.28;5077742;27;65663;-42
2021/08/31 08:40:58;;;;;;;3.67;3.38;;;;;;;29.53;43.60;100539.16;5077081;27;69190;-44
2021/08/31 08:43:29;;;;;;;3.60;3.38;;;;;;;29.46;43.99;100533.81;5069375;27;66025;-44
2021/08/31 08:46:02;;;;;;;3.35;3.15;;;;;;;29.42;43.85;100531.75;5076407;27;69613;-43
2021/08/31 08:48:34;;;;;;;3.50;3.30;;;;;;;29.45;43.27;100534.88;5070352;27;66191;-44
2021/08/31 08:51:06;;;;;;;3.58;3.38;;;;;;;29.46;43.40;100527.59;5072196;27;69787;-44
2021/08/31 08:53:36;;;;;;;6.05;3.80;;;;;;;29.43;47.21;100523.44;5072788;27;66255;-45
2021/08/31 08:56:07;;;;;;;4.47;4.28;;;;;;;29.55;54.54;100531.66;5071499;27;70401;-44
2021/08/31 08:58:38;;;;;;;6.10;5.80;;;;;;;29.70;58.25;100540.31;5073405;27;65276;-44
2021/08/31 09:01:22;;;;;;;6.03;5.63;;;;;;;29.81;59.59;100528.78;5079499;27;69943;-44
2021/08/31 09:03:55;;;;;;;6.00;5.70;;;;;;;29.68;61.64;100474.84;5071799;27;67051;-44
2021/08/31 09:06:26;;;;;;;6.43;6.03;;;;;;;30.08;62.61;100525.00;5060134;27;69772;-43
2021/08/31 09:09:00;;;;;;;7.55;5.72;;;;;;;30.19;63.07;100521.56;5066838;27;66661;-44
2021/08/31 09:11:37;;;;;;;6.80;6.40;;;;;;;30.22;64.11;100511.13;5066115;27;70033;-44
2021/08/31 09:14:19;;;;;;;7.25;6.85;;;;;;;30.35;64.93;100518.28;5067220;27;65952;-43
2021/08/31 09:16:53;;;;;;;7.07;6.68;;;;;;;30.35;64.90;100509.34;5071008;27;69329;-44
2021/08/31 09:19:43;;;;;;;7.63;7.13;;;;;;;30.52;65.09;100529.34;5072454;27;66145;-45
2021/08/31 09:22:26;;;;;;;7.40;6.88;;;;;;;30.57;64.90;100518.66;5086224;27;69328;-44
2021/08/31 09:25:12;;;;;;;7.40;6.80;;;;;;;30.34;65.50;100486.03;5077784;27;66440;-43
2021/08/31 09:27:50;;;;;;;7.82;7.38;;;;;;;30.68;65.81;100528.72;5066631;27;70369;-44
2021/08/31 09:30:31;;;;;;;7.47;6.97;;;;;;;30.75;65.92;100538.63;5064677;27;65595;-43
2021/08/31 09:33:08;;;;;;;8.50;8.00;;;;;;;30.77;65.49;100537.34;5071844;27;70362;-44
2021/08/31 09:35:40;;;;;;;8.57;8.02;;;;;;;30.83;65.15;100535.66;5072062;27;66250;-46
2021/08/31 09:38:16;;;;;;;6.55;6.25;;;;;;;30.64;63.98;100495.03;5071566;27;70148;-45
2021/08/31 09:40:51;;;;;;;11.02;6.10;;;;;;;30.69;63.05;100484.34;5068827;27;66027;-43
2021/08/31 09:43:24;;;;;;;7.05;6.57;;;;;;;31.08;63.31;100536.34;5084215;27;69992;-44
2021/08/31 09:45:56;;;;;;;9.45;8.43;;;;;;;31.13;63.82;100536.47;5049884;28;66145;-43
2021/08/31 09:48:27;;;;;;;9.02;8.43;;;;;;;31.22;65.62;100538.88;5077816;27;69445;-45
2021/08/31 09:50:58;;;;;;;9.17;8.53;;;;;;;31.24;66.92;100545.72;5068598;27;65610;-45
2021/08/31 09:53:30;;;;;;;9.38;8.45;;;;;;;31.33;66.50;100551.63;5073053;27;70194;-44
2021/08/31 09:56:06;;;;;;;7.32;6.93;;;;;;;31.39;64.83;100561.56;5073418;27;66152;-43
2021/08/31 09:58:39;;;;;;;7.30;6.80;;;;;;;31.43;64.60;100565.47;5064373;27;69954;-44
2021/08/31 10:01:11;;;;;;;8.55;8.00;;;;;;;31.47;64.70;100574.78;5072047;27;66720;-43
2021/08/31 10:03:43;;;;;;;7.35;6.95;;;;;;;31.51;64.58;100594.97;5072073;27;70591;-44
2021/08/31 10:06:14;;;;;;;9.07;8.38;;;;;;;31.56;64.52;100597.78;5068450;27;66639;-43
2021/08/31 10:08:46;;;;;;;12.65;8.80;;;;;;;31.58;64.73;100606.53;5066695;27;70197;-44
2021/08/31 10:11:18;;;;;;;14.80;9.27;;;;;;;31.60;64.90;100609.84;5069291;27;65453;-44
2021/08/31 10:13:49;;;;;;;9.68;8.98;;;;;;;31.64;64.81;100610.19;5052169;27;70126;-44
2021/08/31 10:16:22;;;;;;;9.18;8.32;;;;;;;31.69;64.64;100606.81;5067506;27;66442;-44
2021/08/31 10:18:55;;;;;;;10.05;9.32;;;;;;;31.61;64.95;100594.41;5067446;27;70687;-43
2021/08/31 10:21:26;;;;;;;9.93;9.32;;;;;;;31.72;64.75;100614.47;5073096;27;65823;-44
2021/08/31 10:23:58;;;;;;;9.85;9.20;;;;;;;31.73;64.78;100614.25;5072626;27;68323;-44
2021/08/31 10:26:39;;;;;;;11.50;10.77;;;;;;;31.71;65.42;100621.78;5074121;27;67712;-46
2021/08/31 10:29:22;;;;;;;13.85;12.55;;;;;;;31.69;65.87;100629.31;5070152;27;69829;-45
2021/08/31 10:31:56;;;;;;;14.63;13.40;;;;;;;31.76;65.16;100631.91;5066528;27;66646;-45
2021/08/31 10:34:30;;;;;;;15.57;14.32;;;;;;;31.74;64.63;100634.06;5065136;27;70015;-43
2021/08/31 10:37:12;;;;;;;15.27;14.02;;;;;;;31.73;65.29;100640.50;5070653;27;66288;-42
2021/08/31 10:39:56;;;;;;;13.95;12.85;;;;;;;31.72;65.67;100639.69;5068068;27;70661;-44
2021/08/31 10:42:29;;;;;;;15.43;14.45;;;;;;;31.74;64.57;100632.16;5052916;27;66430;-43
2021/08/31 10:45:21;;;;;;;14.35;13.18;;;;;;;31.72;64.76;100638.88;5066916;27;70042;-44
2021/08/31 10:47:52;;;;;;;;;;;;;;;31.39;66.39;100651.00;5048897;27;65724;-43
2021/08/31 10:50:28;;;;;;;15.20;14.15;;;;;;;31.12;64.71;100564.66;5075766;27;70136;-43
2021/08/31 10:53:05;;;;;;;16.33;15.00;;;;;;;31.47;64.89;100622.75;5073429;27;67277;-43
2021/08/31 10:55:39;;;;;;;14.73;13.70;;;;;;;31.53;64.67;100633.50;5067223;27;69709;-43
2021/08/31 10:58:11;;;;;;;20.83;19.10;;;;;;;31.67;65.96;100657.72;5080854;27;65803;-43
2021/08/31 11:00:42;;;;;;;19.63;18.23;;;;;;;31.61;66.09;100656.75;5074642;27;69806;-43
2021/08/31 11:03:30;;;;;;;19.50;17.80;;;;;;;31.43;66.11;100657.66;5067694;27;66082;-44
2021/08/31 11:06:26;;;;;;;16.42;15.18;;;;;;;31.38;66.91;100665.63;5078172;27;70745;-44
2021/08/31 11:09:08;;;;;;;16.67;15.38;;;;;;;31.37;66.82;100669.38;5080633;27;67556;-44
2021/08/31 11:11:41;;;;;;;18.50;14.90;;;;;;;31.16;66.68;100632.75;5071551;27;69817;-45
2021/08/31 11:14:14;;;;;;;15.20;13.75;;;;;;;31.32;66.63;100672.75;5079120;27;66074;-44
2021/08/31 11:16:48;;;;;;;15.45;14.25;;;;;;;31.13;66.74;100647.56;5059900;27;70254;-44
2021/08/31 11:19:29;;;;;;;15.38;14.00;;;;;;;31.21;67.08;100687.09;5071992;27;65511;-44
2021/08/31 11:22:00;;;;;;;16.05;14.85;;;;;;;31.24;67.05;100686.63;5068823;27;70234;-44
2021/08/31 11:24:30;;;;;;;14.18;13.02;;;;;;;31.24;66.88;100691.22;5078448;27;65728;-45
2021/08/31 11:27:05;;;;;;;15.02;13.93;;;;;;;31.05;67.33;100656.00;5076201;27;70753;-45
2021/08/31 11:29:36;;;;;;;13.95;12.68;;;;;;;31.15;67.50;100683.41;5078710;27;65556;-44
2021/08/31 11:32:07;;;;;;;14.13;13.23;;;;;;;31.14;67.14;100686.31;5085546;27;70227;-44
2021/08/31 11:34:37;;;;;;;13.95;12.50;;;;;;;31.16;67.55;100687.75;5077588;27;66697;-45
2021/08/31 11:37:10;;;;;;;12.98;11.75;;;;;;;31.13;67.55;100685.50;5076620;27;69278;-44
2021/08/31 11:39:41;;;;;;;11.85;10.95;;;;;;;31.13;67.11;100690.91;5076408;27;65284;-45
2021/08/31 11:42:13;;;;;;;11.97;11.27;;;;;;;31.12;67.14;100721.78;5075306;27;69772;-45
2021/08/31 11:44:57;;;;;;;12.77;11.82;;;;;;;30.73;67.80;100664.25;5081901;27;65844;-44